F/V Mirentxu 1 — FNSF — position and weather

sailwx.info

Track history (hours):
 
Tides and Currents Weather Stations Pressure Air Temp Water Temp Dewpoint Dewpoint Depression Visibility Wind Speed Wind Dir Waves Ship Positions

F/V Mirentxu 1

Last reported at 2017-Nov-17 01:53 UTC. Time now 2017-Nov-17 22:58 UTC.
Position N 47°44' W 003°22'.

Length 16 m; draft 3 m.

Type: Fishing. MMSI: 228302900.

Date/timePositionNaut miles runAvg speedWind from/ knotsBaromVisibWave heightAir tempDewpointWater temp
2017-Nov-17 01:53N 47°44' W 003°22'0 0.3
2017-Nov-17 01:30N 47°44' W 003°22'0 0.0
2017-Nov-17 01:00N 47°44' W 003°22'0 0.0
2017-Nov-17 00:30N 47°44' W 003°22'0 0.0
2017-Nov-17 00:00N 47°44' W 003°22'0 0.0
2017-Nov-16 23:30N 47°44' W 003°22'2 4.3
2017-Nov-16 23:00N 47°42' W 003°23'5 9.0
2017-Nov-16 22:30N 47°41' W 003°29'2 3.3
2017-Nov-16 22:00N 47°41' W 003°32'0 0.5
2017-Nov-16 21:30N 47°41' W 003°32'1 1.0
2017-Nov-16 21:00N 47°41' W 003°31'0 0.6
2017-Nov-16 20:30N 47°41' W 003°31'1 1.1
2017-Nov-16 20:00N 47°41' W 003°30'0 0.5
2017-Nov-16 19:30N 47°41' W 003°30'0 0.9
2017-Nov-16 19:00N 47°40' W 003°29'0 0.9
2017-Nov-16 18:30N 47°40' W 003°29'0 0.9
2017-Nov-16 18:00N 47°40' W 003°29'1 1.0
2017-Nov-16 17:30N 47°40' W 003°28'1 1.1
2017-Nov-16 17:00N 47°40' W 003°29'1 1.8
2017-Nov-16 16:30N 47°40' W 003°27'4 8.8
2017-Nov-16 16:00N 47°43' W 003°22'1 0.1
2017-Nov-16 01:31N 47°44' W 003°22'0 0.0
2017-Nov-16 01:30N 47°44' W 003°22'0 0.2
2017-Nov-16 01:00N 47°44' W 003°22'0 0.0
2017-Nov-16 00:30N 47°44' W 003°22'0 0.0
2017-Nov-16 00:00N 47°44' W 003°22'1 2.8
2017-Nov-15 23:30N 47°42' W 003°22'4 8.2
2017-Nov-15 23:00N 47°41' W 003°28'2 4.5
2017-Nov-15 22:30N 47°42' W 003°31'0 0.6
2017-Nov-15 22:00N 47°41' W 003°30'0 0.6
2017-Nov-15 21:30N 47°41' W 003°30'0 0.6
2017-Nov-15 21:00N 47°41' W 003°30'1 1.6
2017-Nov-15 20:30N 47°40' W 003°31'3 6.5
2017-Nov-15 20:00N 47°43' W 003°34'2 4.4
2017-Nov-15 19:30N 47°42' W 003°31'3 6.6
2017-Nov-15 19:00N 47°40' W 003°27'1 2.5
2017-Nov-15 18:30N 47°39' W 003°26'2 4.6
2017-Nov-15 18:00N 47°41' W 003°29'0 0.8
2017-Nov-15 17:30N 47°41' W 003°28'1 1.8
2017-Nov-15 17:00N 47°40' W 003°27'3 5.4
2017-Nov-15 16:30N 47°41' W 003°24'3 0.2
2017-Nov-15 02:31N 47°44' W 003°22'0 0.0
2017-Nov-15 02:30N 47°44' W 003°22'0 0.2
2017-Nov-15 02:00N 47°44' W 003°22'0 0.0
2017-Nov-15 01:30N 47°44' W 003°22'1 3.0
2017-Nov-15 01:00N 47°42' W 003°22'3 5.1
2017-Nov-15 00:30N 47°40' W 003°24'3 5.1
2017-Nov-15 00:00N 47°40' W 003°28'0 0.7
2017-Nov-14 23:30N 47°40' W 003°27'1 1.6
2017-Nov-14 23:00N 47°40' W 003°26'0 0.2
2017-Nov-14 22:30N 47°40' W 003°26'0 0.6
2017-Nov-14 22:00N 47°40' W 003°26'0 0.4
2017-Nov-14 21:30N 47°40' W 003°26'2 3.1
2017-Nov-14 21:00N 47°39' W 003°24'4 8.2
2017-Nov-14 20:30N 47°39' W 003°17'4 7.5
2017-Nov-14 20:00N 47°36' W 003°14'3 6.7
2017-Nov-14 19:30N 47°33' W 003°12'1 1.8
2017-Nov-14 19:00N 47°32' W 003°13'1 1.6
2017-Nov-14 18:30N 47°32' W 003°12'1 2.8
2017-Nov-14 18:00N 47°34' W 003°13'4 8.4
2017-Nov-14 17:30N 47°38' W 003°15'4 7.6
2017-Nov-14 17:00N 47°38' W 003°20'3 5.8
2017-Nov-14 16:30N 47°41' W 003°22'3 0.2
2017-Nov-14 03:00N 47°44' W 003°22'0 0.3
2017-Nov-14 02:30N 47°44' W 003°22'0 0.0
2017-Nov-14 02:00N 47°44' W 003°22'0 0.1
2017-Nov-14 01:30N 47°44' W 003°22'4 7.5
2017-Nov-14 01:00N 47°40' W 003°21'4 8.3
2017-Nov-14 00:30N 47°38' W 003°16'4 8.1
2017-Nov-14 00:00N 47°34' W 003°14'1 2.6
2017-Nov-13 23:30N 47°33' W 003°13'0 0.3
2017-Nov-13 23:00N 47°33' W 003°13'1 1.0
2017-Nov-13 22:30N 47°33' W 003°13'0 0.3
2017-Nov-13 22:00N 47°33' W 003°13'12 0.6
2017-Nov-13 02:00N 47°44' W 003°22'0 0.0
2017-Nov-13 01:30N 47°44' W 003°22'0 0.2
2017-Nov-13 01:00N 47°44' W 003°22'0 0.0
2017-Nov-13 00:30N 47°44' W 003°22'0 0.0
2017-Nov-13 00:00N 47°44' W 003°22'0 0.1
2017-Nov-12 23:30N 47°44' W 003°22'4 8.3
2017-Nov-12 23:00N 47°40' W 003°22'2 3.5
2017-Nov-12 22:30N 47°38' W 003°23'1 1.3
2017-Nov-12 22:00N 47°38' W 003°24'0 1.0
2017-Nov-12 21:30N 47°39' W 003°24'0 0.7
2017-Nov-12 21:00N 47°39' W 003°25'1 1.4
2017-Nov-12 20:30N 47°39' W 003°24'1 1.2
2017-Nov-12 20:00N 47°39' W 003°24'2 3.5
2017-Nov-12 19:30N 47°39' W 003°22'4 7.3
2017-Nov-12 19:00N 47°39' W 003°16'2 3.9
2017-Nov-12 18:30N 47°37' W 003°15'0 0.7
2017-Nov-12 18:00N 47°37' W 003°15'1 2.1
2017-Nov-12 17:30N 47°38' W 003°16'5 9.1
2017-Nov-12 17:00N 47°39' W 003°22'3 6.4
2017-Nov-12 16:30N 47°41' W 003°26'4 7.4
2017-Nov-12 16:00N 47°44' W 003°22'0 0.2
2017-Nov-12 15:30N 47°44' W 003°22'  
2017-Nov-10 04:43N 47°44' W 003°22'0 0.9
2017-Nov-10 04:30N 47°44' W 003°22'0 0.0
2017-Nov-10 04:00N 47°44' W 003°22'0 0.0
2017-Nov-10 03:30N 47°44' W 003°22'0 0.0
2017-Nov-10 03:00N 47°44' W 003°22'0 0.0
2017-Nov-10 02:30N 47°44' W 003°22'0 0.0
2017-Nov-10 02:00N 47°44' W 003°22'0 0.0
2017-Nov-10 01:30N 47°44' W 003°22'0 0.2
2017-Nov-10 01:01N 47°44' W 003°22'0 0.0
2017-Nov-10 00:30N 47°44' W 003°22'1 1.6
2017-Nov-10 00:00N 47°43' W 003°22'3 6.8
2017-Nov-09 23:30N 47°41' W 003°26'1 2.3
2017-Nov-09 23:00N 47°41' W 003°28'0 0.1
2017-Nov-09 22:30N 47°41' W 003°28'0 0.1
2017-Nov-09 22:01N 47°41' W 003°28'0 0.0
2017-Nov-09 21:30N 47°41' W 003°28'0 0.0
2017-Nov-09 21:00N 47°41' W 003°28'1 1.6
2017-Nov-09 20:31N 47°41' W 003°27'0 0.2
2017-Nov-09 20:00N 47°41' W 003°27'0 0.4
2017-Nov-09 19:30N 47°41' W 003°27'0 0.3
2017-Nov-09 19:01N 47°41' W 003°27'4 7.2
2017-Nov-09 18:30N 47°41' W 003°32'5 9.5
2017-Nov-09 18:00N 47°42' W 003°39'7 9.4
2017-Nov-09 17:13N 47°43' W 003°50'3 9.4
2017-Nov-09 16:54N 47°43' W 003°55'14 9.4
2017-Nov-09 15:26N 47°45' W 004°15'4 8.6
2017-Nov-09 15:00N 47°46' W 004°20'4 7.4
2017-Nov-09 14:30N 47°48' W 004°24'1 1.8
2017-Nov-09 13:59N 47°49' W 004°23'0 0.0
2017-Nov-09 03:17N 47°49' W 004°23'0 0.0
2017-Nov-08 23:30N 47°49' W 004°23'4 8.0
2017-Nov-08 23:00N 47°51' W 004°28'5 9.1
2017-Nov-08 22:30N 47°53' W 004°34'4 9.2
2017-Nov-08 22:00N 47°55' W 004°40'5 9.7
2017-Nov-08 21:31N 47°57' W 004°46'4 8.0
2017-Nov-08 21:00N 47°59' W 004°51'1 1.1
2017-Nov-08 20:30N 47°60' W 004°52'1 1.1
2017-Nov-08 20:00N 48°00' W 004°52'1 2.0
2017-Nov-08 19:30N 48°01' W 004°51'0 0.7
2017-Nov-08 19:00N 48°01' W 004°51'2 3.6
2017-Nov-08 18:30N 47°60' W 004°50'4 8.0
2017-Nov-08 18:00N 47°60' W 004°44'3 6.8
2017-Nov-08 17:30N 47°60' W 004°39'4 8.5
2017-Nov-08 16:59N 47°58' W 004°33'4 8.9
2017-Nov-08 16:29N 47°55' W 004°28'4 8.7
2017-Nov-08 16:00N 47°51' W 004°25'2 4.6
2017-Nov-08 15:29N 47°49' W 004°23'  
Track history (hours):
 
Tides and Currents Weather Stations Pressure Air Temp Water Temp Dewpoint Dewpoint Depression Visibility Wind Speed Wind Dir Waves Ship Positions

F/V Mirentxu 1

Last reported at 2017-Nov-17 01:53 UTC. Time now 2017-Nov-17 22:58 UTC.
Position N 47°44' W 003°22'.

Length 16 m; draft 3 m.

Type: Fishing. MMSI: 228302900.

Date/timePositionNaut miles runAvg speedWind from/ knotsBaromVisibWave heightAir tempDewpointWater temp
2017-Nov-17 01:53N 47°44' W 003°22'0 0.3
2017-Nov-17 01:30N 47°44' W 003°22'0 0.0
2017-Nov-17 01:00N 47°44' W 003°22'0 0.0
2017-Nov-17 00:30N 47°44' W 003°22'0 0.0
2017-Nov-17 00:00N 47°44' W 003°22'0 0.0
2017-Nov-16 23:30N 47°44' W 003°22'2 4.3
2017-Nov-16 23:00N 47°42' W 003°23'5 9.0
2017-Nov-16 22:30N 47°41' W 003°29'2 3.3
2017-Nov-16 22:00N 47°41' W 003°32'0 0.5
2017-Nov-16 21:30N 47°41' W 003°32'1 1.0
2017-Nov-16 21:00N 47°41' W 003°31'0 0.6
2017-Nov-16 20:30N 47°41' W 003°31'1 1.1
2017-Nov-16 20:00N 47°41' W 003°30'0 0.5
2017-Nov-16 19:30N 47°41' W 003°30'0 0.9
2017-Nov-16 19:00N 47°40' W 003°29'0 0.9
2017-Nov-16 18:30N 47°40' W 003°29'0 0.9
2017-Nov-16 18:00N 47°40' W 003°29'1 1.0
2017-Nov-16 17:30N 47°40' W 003°28'1 1.1
2017-Nov-16 17:00N 47°40' W 003°29'1 1.8
2017-Nov-16 16:30N 47°40' W 003°27'4 8.8
2017-Nov-16 16:00N 47°43' W 003°22'1 0.1
2017-Nov-16 01:31N 47°44' W 003°22'0 0.0
2017-Nov-16 01:30N 47°44' W 003°22'0 0.2
2017-Nov-16 01:00N 47°44' W 003°22'0 0.0
2017-Nov-16 00:30N 47°44' W 003°22'0 0.0
2017-Nov-16 00:00N 47°44' W 003°22'1 2.8
2017-Nov-15 23:30N 47°42' W 003°22'4 8.2
2017-Nov-15 23:00N 47°41' W 003°28'2 4.5
2017-Nov-15 22:30N 47°42' W 003°31'0 0.6
2017-Nov-15 22:00N 47°41' W 003°30'0 0.6
2017-Nov-15 21:30N 47°41' W 003°30'0 0.6
2017-Nov-15 21:00N 47°41' W 003°30'1 1.6
2017-Nov-15 20:30N 47°40' W 003°31'3 6.5
2017-Nov-15 20:00N 47°43' W 003°34'2 4.4
2017-Nov-15 19:30N 47°42' W 003°31'3 6.6
2017-Nov-15 19:00N 47°40' W 003°27'1 2.5
2017-Nov-15 18:30N 47°39' W 003°26'2 4.6
2017-Nov-15 18:00N 47°41' W 003°29'0 0.8
2017-Nov-15 17:30N 47°41' W 003°28'1 1.8
2017-Nov-15 17:00N 47°40' W 003°27'3 5.4
2017-Nov-15 16:30N 47°41' W 003°24'3 0.2
2017-Nov-15 02:31N 47°44' W 003°22'0 0.0
2017-Nov-15 02:30N 47°44' W 003°22'0 0.2
2017-Nov-15 02:00N 47°44' W 003°22'0 0.0
2017-Nov-15 01:30N 47°44' W 003°22'1 3.0
2017-Nov-15 01:00N 47°42' W 003°22'3 5.1
2017-Nov-15 00:30N 47°40' W 003°24'3 5.1
2017-Nov-15 00:00N 47°40' W 003°28'0 0.7
2017-Nov-14 23:30N 47°40' W 003°27'1 1.6
2017-Nov-14 23:00N 47°40' W 003°26'0 0.2
2017-Nov-14 22:30N 47°40' W 003°26'0 0.6
2017-Nov-14 22:00N 47°40' W 003°26'0 0.4
2017-Nov-14 21:30N 47°40' W 003°26'2 3.1
2017-Nov-14 21:00N 47°39' W 003°24'4 8.2
2017-Nov-14 20:30N 47°39' W 003°17'4 7.5
2017-Nov-14 20:00N 47°36' W 003°14'3 6.7
2017-Nov-14 19:30N 47°33' W 003°12'1 1.8
2017-Nov-14 19:00N 47°32' W 003°13'1 1.6
2017-Nov-14 18:30N 47°32' W 003°12'1 2.8
2017-Nov-14 18:00N 47°34' W 003°13'4 8.4
2017-Nov-14 17:30N 47°38' W 003°15'4 7.6
2017-Nov-14 17:00N 47°38' W 003°20'3 5.8
2017-Nov-14 16:30N 47°41' W 003°22'3 0.2
2017-Nov-14 03:00N 47°44' W 003°22'0 0.3
2017-Nov-14 02:30N 47°44' W 003°22'0 0.0
2017-Nov-14 02:00N 47°44' W 003°22'0 0.1
2017-Nov-14 01:30N 47°44' W 003°22'4 7.5
2017-Nov-14 01:00N 47°40' W 003°21'4 8.3
2017-Nov-14 00:30N 47°38' W 003°16'4 8.1
2017-Nov-14 00:00N 47°34' W 003°14'1 2.6
2017-Nov-13 23:30N 47°33' W 003°13'0 0.3
2017-Nov-13 23:00N 47°33' W 003°13'1 1.0
2017-Nov-13 22:30N 47°33' W 003°13'0 0.3
2017-Nov-13 22:00N 47°33' W 003°13'12 0.6
2017-Nov-13 02:00N 47°44' W 003°22'0 0.0
2017-Nov-13 01:30N 47°44' W 003°22'0 0.2
2017-Nov-13 01:00N 47°44' W 003°22'0 0.0
2017-Nov-13 00:30N 47°44' W 003°22'0 0.0
2017-Nov-13 00:00N 47°44' W 003°22'0 0.1
2017-Nov-12 23:30N 47°44' W 003°22'4 8.3
2017-Nov-12 23:00N 47°40' W 003°22'2 3.5
2017-Nov-12 22:30N 47°38' W 003°23'1 1.3
2017-Nov-12 22:00N 47°38' W 003°24'0 1.0
2017-Nov-12 21:30N 47°39' W 003°24'0 0.7
2017-Nov-12 21:00N 47°39' W 003°25'1 1.4
2017-Nov-12 20:30N 47°39' W 003°24'1 1.2
2017-Nov-12 20:00N 47°39' W 003°24'2 3.5
2017-Nov-12 19:30N 47°39' W 003°22'4 7.3
2017-Nov-12 19:00N 47°39' W 003°16'2 3.9
2017-Nov-12 18:30N 47°37' W 003°15'0 0.7
2017-Nov-12 18:00N 47°37' W 003°15'1 2.1
2017-Nov-12 17:30N 47°38' W 003°16'5 9.1
2017-Nov-12 17:00N 47°39' W 003°22'3 6.4
2017-Nov-12 16:30N 47°41' W 003°26'4 7.4
2017-Nov-12 16:00N 47°44' W 003°22'0 0.2
2017-Nov-12 15:30N 47°44' W 003°22'  
2017-Nov-10 04:43N 47°44' W 003°22'0 0.9
2017-Nov-10 04:30N 47°44' W 003°22'0 0.0
2017-Nov-10 04:00N 47°44' W 003°22'0 0.0
2017-Nov-10 03:30N 47°44' W 003°22'0 0.0
2017-Nov-10 03:00N 47°44' W 003°22'0 0.0
2017-Nov-10 02:30N 47°44' W 003°22'0 0.0
2017-Nov-10 02:00N 47°44' W 003°22'0 0.0
2017-Nov-10 01:30N 47°44' W 003°22'0 0.2
2017-Nov-10 01:01N 47°44' W 003°22'0 0.0
2017-Nov-10 00:30N 47°44' W 003°22'1 1.6
2017-Nov-10 00:00N 47°43' W 003°22'3 6.8
2017-Nov-09 23:30N 47°41' W 003°26'1 2.3
2017-Nov-09 23:00N 47°41' W 003°28'0 0.1
2017-Nov-09 22:30N 47°41' W 003°28'0 0.1
2017-Nov-09 22:01N 47°41' W 003°28'0 0.0
2017-Nov-09 21:30N 47°41' W 003°28'0 0.0
2017-Nov-09 21:00N 47°41' W 003°28'1 1.6
2017-Nov-09 20:31N 47°41' W 003°27'0 0.2
2017-Nov-09 20:00N 47°41' W 003°27'0 0.4
2017-Nov-09 19:30N 47°41' W 003°27'0 0.3
2017-Nov-09 19:01N 47°41' W 003°27'4 7.2
2017-Nov-09 18:30N 47°41' W 003°32'5 9.5
2017-Nov-09 18:00N 47°42' W 003°39'7 9.4
2017-Nov-09 17:13N 47°43' W 003°50'3 9.4
2017-Nov-09 16:54N 47°43' W 003°55'14 9.4
2017-Nov-09 15:26N 47°45' W 004°15'4 8.6
2017-Nov-09 15:00N 47°46' W 004°20'4 7.4
2017-Nov-09 14:30N 47°48' W 004°24'1 1.8
2017-Nov-09 13:59N 47°49' W 004°23'0 0.0
2017-Nov-09 03:17N 47°49' W 004°23'0 0.0
2017-Nov-08 23:30N 47°49' W 004°23'4 8.0
2017-Nov-08 23:00N 47°51' W 004°28'5 9.1
2017-Nov-08 22:30N 47°53' W 004°34'4 9.2
2017-Nov-08 22:00N 47°55' W 004°40'5 9.7
2017-Nov-08 21:31N 47°57' W 004°46'4 8.0
2017-Nov-08 21:00N 47°59' W 004°51'1 1.1
2017-Nov-08 20:30N 47°60' W 004°52'1 1.1
2017-Nov-08 20:00N 48°00' W 004°52'1 2.0
2017-Nov-08 19:30N 48°01' W 004°51'0 0.7
2017-Nov-08 19:00N 48°01' W 004°51'2 3.6
2017-Nov-08 18:30N 47°60' W 004°50'4 8.0
2017-Nov-08 18:00N 47°60' W 004°44'3 6.8
2017-Nov-08 17:30N 47°60' W 004°39'4 8.5
2017-Nov-08 16:59N 47°58' W 004°33'4 8.9
2017-Nov-08 16:29N 47°55' W 004°28'4 8.7
2017-Nov-08 16:00N 47°51' W 004°25'2 4.6
2017-Nov-08 15:29N 47°49' W 004°23'  

Dump ship's entire track history